Argonia, KS

8:41 AM CDT on August 25, 2016 (GMT -0500)
farm | | Change Station

Elev 1191 ft 37.14 °N, 97.54 °W | Updated 8 minutes ago

Mostly Cloudy
Mostly Cloudy
77.0 °F
Feels Like 78 °F
N
4.2
Wind Variable Wind from ESE

Today
High -- | Low -- °F
--% Chance of Precip.
Yesterday
High -- | Low -- °F
Precip. -- in
Pressure 30.08 in
Visibility 10.0 miles
Clouds Scattered Clouds 600 ft
Mostly Cloudy 2500 ft
Mostly Cloudy 10000 ft
Heat Index 78 °F
Dew Point 71 °F
Humidity 83%
Rainfall 0.17 in
Snow Depth Not available.
6:56 AM 8:09 PM
Last Quarter, 45% visible
SPECI KICT 251332Z 33014G19KT 10SM SCT006 BKN025 BKN100 21/19 A3008 RMK AO2 T02110194
Pressure 30.08 in
Visibility 10.0 miles
Clouds Scattered Clouds 600 ft
Mostly Cloudy 2500 ft
Mostly Cloudy 10000 ft
Heat Index 78 °F
Dew Point 71 °F
Humidity 83%
Rainfall 0.17 in
Snow Depth Not available.
6:56 AM 8:09 PM
Last Quarter, 45% visible
SPECI KICT 251332Z 33014G19KT 10SM SCT006 BKN025 BKN100 21/19 A3008 RMK AO2 T02110194

10-Day Weather Forecast

Almanac

Astronomy

Aug. 25, 2016 Rise Set
Actual Time
Civil Twilight
Nautical Twilight
Astronomical Twilight
Moon
Length of Visible Light
Length of Day
Tomorrow will be .
, % of the Moon is Illuminated

Today's Extremes

State Highs State Lows

Community

WunderPhotos

Upload Photos

1,934,847 photos uploaded!

WunderBlog® & News

Nearby

Air Quality

  Air Quality AQ Index Pollutant
Not available.

Snow Depth

Station Depth Elevation

Earthquake Activity

City Distance Mag. Time & Date
Minimum magnitude displayed is 2.5.

Coastal Water Temperatures

Place Temperature

Stations

Nearby Weather Stations

Station Location Temp. Windchill Dew Point Humidity Wind Precip. Elev Updated Type
                   

Watches & Warnings

There are currently no watches in effect.